createdAt,value
2022-10-21T00:01:36.380Z,11.95
2022-10-21T00:03:45.340Z,12.68
2022-10-21T00:05:52.925Z,13.05
2022-10-21T00:07:59.849Z,15.27
2022-10-21T00:10:07.852Z,15.20
2022-10-21T00:12:14.677Z,13.30
2022-10-21T00:14:21.447Z,12.32
2022-10-21T00:16:28.220Z,12.30
2022-10-21T00:18:35.862Z,12.07
2022-10-21T00:20:47.039Z,13.02
2022-10-21T00:22:53.793Z,12.85
2022-10-21T00:25:00.580Z,13.48
2022-10-21T00:27:07.694Z,12.23
2022-10-21T00:29:14.590Z,12.45
2022-10-21T00:31:21.769Z,11.90
2022-10-21T00:33:29.564Z,10.98
2022-10-21T00:35:37.617Z,12.45
2022-10-21T00:37:45.976Z,11.63
2022-10-21T00:39:54.077Z,11.10
2022-10-21T00:42:00.849Z,11.15
2022-10-21T00:44:10.078Z,12.05
2022-10-21T00:46:19.512Z,12.18
2022-10-21T00:48:32.276Z,10.25
2022-10-21T00:50:42.829Z,9.82
2022-10-21T00:52:51.452Z,9.40
2022-10-21T00:55:01.463Z,10.20
2022-10-21T00:57:09.251Z,10.23
2022-10-21T00:59:17.247Z,10.20
2022-10-21T01:01:25.141Z,10.85
2022-10-21T01:03:34.277Z,10.13
2022-10-21T01:05:42.369Z,10.85
2022-10-21T01:07:53.248Z,8.45
2022-10-21T01:10:00.072Z,9.05
2022-10-21T01:12:09.553Z,7.80
2022-10-21T01:14:55.500Z,8.23
2022-10-21T01:17:20.383Z,7.47
2022-10-21T01:20:11.351Z,8.02
2022-10-21T01:22:31.691Z,6.53
2022-10-21T01:25:06.374Z,6.22
2022-10-21T01:27:33.051Z,5.38
2022-10-21T01:30:18.894Z,4.22
2022-10-21T01:32:35.031Z,4.50
2022-10-21T01:34:47.696Z,4.50
2022-10-21T01:36:58.048Z,4.25
2022-10-21T01:39:16.134Z,4.05
2022-10-21T01:41:28.128Z,4.57
2022-10-21T01:43:42.227Z,4.03
2022-10-21T01:45:53.298Z,3.90
2022-10-21T01:48:05.648Z,3.80
2022-10-21T01:50:17.082Z,3.90
2022-10-21T01:54:33.953Z,3.90
2022-10-21T01:56:42.315Z,4.32
2022-10-21T01:58:51.134Z,3.78
2022-10-21T02:01:00.337Z,4.38
2022-10-21T02:03:11.794Z,3.83
2022-10-21T02:05:23.169Z,4.60
2022-10-21T02:07:30.040Z,4.05
2022-10-21T02:09:37.078Z,4.22
2022-10-21T02:11:46.801Z,3.75
2022-10-21T02:14:00.249Z,3.97
2022-10-21T02:16:11.572Z,4.00
2022-10-21T02:18:25.311Z,4.07
2022-10-21T02:20:35.001Z,3.78
2022-10-21T02:22:46.335Z,4.22
2022-10-21T02:24:56.736Z,4.50
2022-10-21T02:27:04.021Z,3.78
2022-10-21T02:29:11.149Z,4.30
2022-10-21T02:31:38.556Z,3.85
2022-10-21T02:33:54.900Z,3.75
2022-10-21T02:36:09.817Z,3.38
2022-10-21T02:38:23.870Z,3.15
2022-10-21T02:40:35.340Z,3.35
2022-10-21T02:44:50.113Z,3.42
2022-10-21T02:46:56.831Z,3.60
2022-10-21T02:49:05.344Z,3.53
2022-10-21T02:51:12.887Z,3.30
2022-10-21T02:53:20.069Z,3.80
2022-10-21T02:55:27.352Z,3.72
2022-10-21T02:57:34.124Z,4.10
2022-10-21T02:59:43.253Z,3.50
2022-10-21T03:01:50.126Z,3.95
2022-10-21T03:03:57.561Z,3.80
2022-10-21T03:06:05.975Z,3.85
2022-10-21T03:08:12.900Z,3.88
2022-10-21T03:10:20.185Z,4.05
2022-10-21T03:12:27.107Z,3.78
2022-10-21T03:14:33.939Z,3.78
2022-10-21T03:16:40.803Z,3.92
2022-10-21T03:18:47.938Z,3.53
2022-10-21T03:20:55.014Z,4.03
2022-10-21T03:23:03.785Z,3.90
2022-10-21T03:25:11.479Z,3.80
2022-10-21T03:27:18.342Z,3.97
2022-10-21T03:29:25.127Z,3.90
2022-10-21T03:31:31.999Z,3.10
2022-10-21T03:33:38.884Z,3.47
2022-10-21T03:35:45.696Z,3.35
2022-10-21T03:37:52.925Z,3.22
2022-10-21T03:40:01.341Z,3.08
2022-10-21T03:42:08.221Z,3.10
2022-10-21T03:44:15.192Z,2.97
2022-10-21T03:46:22.169Z,3.30
2022-10-21T03:48:29.400Z,3.45
2022-10-21T03:50:36.122Z,3.30
2022-10-21T03:52:43.002Z,2.80
2022-10-21T03:54:49.817Z,3.00
2022-10-21T03:56:59.049Z,2.83
2022-10-21T03:59:06.385Z,3.25
2022-10-21T04:01:15.794Z,2.67
2022-10-21T04:03:22.860Z,2.53
2022-10-21T04:05:29.772Z,2.85
2022-10-21T04:07:36.547Z,2.90
2022-10-21T04:09:43.829Z,3.08
2022-10-21T04:11:50.909Z,2.80
2022-10-21T04:13:59.628Z,3.10
2022-10-21T04:16:08.802Z,2.60
2022-10-21T04:18:16.036Z,2.53
2022-10-21T04:20:22.961Z,2.78
2022-10-21T04:22:30.450Z,2.38
2022-10-21T04:24:37.221Z,2.40
2022-10-21T04:26:44.609Z,2.72
2022-10-21T04:28:51.380Z,2.33
2022-10-21T04:30:59.877Z,2.50
2022-10-21T04:33:06.563Z,2.90
2022-10-21T04:35:13.696Z,2.40
2022-10-21T04:37:20.517Z,2.50
2022-10-21T04:39:27.237Z,2.40
2022-10-21T04:41:34.060Z,2.17
2022-10-21T04:43:41.344Z,2.20
2022-10-21T04:45:48.116Z,2.40
2022-10-21T04:47:56.734Z,1.90
2022-10-21T04:50:03.504Z,2.40
2022-10-21T04:52:10.380Z,2.45
2022-10-21T04:54:17.252Z,2.38
2022-10-21T04:56:24.128Z,2.25
2022-10-21T04:58:31.005Z,2.50
2022-10-21T05:00:37.885Z,2.22
2022-10-21T05:02:44.601Z,2.15
2022-10-21T05:04:53.213Z,2.20
2022-10-21T05:06:59.983Z,2.30
2022-10-21T05:09:07.589Z,2.20
2022-10-21T05:11:14.456Z,1.90
2022-10-21T05:13:21.323Z,1.98
2022-10-21T05:15:28.402Z,2.00
2022-10-21T05:17:37.493Z,1.98
2022-10-21T05:19:44.511Z,2.03
2022-10-21T05:21:52.917Z,1.90
2022-10-21T05:23:59.793Z,2.00
2022-10-21T05:26:06.665Z,1.83
2022-10-21T05:28:13.592Z,2.20
2022-10-21T05:30:20.518Z,2.20
2022-10-21T05:32:27.481Z,2.35
2022-10-21T05:34:34.215Z,1.85
2022-10-21T05:36:41.039Z,2.17
2022-10-21T05:38:49.500Z,1.85
2022-10-21T05:40:56.220Z,2.10
2022-10-21T05:43:03.040Z,1.77
2022-10-21T05:45:11.249Z,2.15
2022-10-21T05:47:18.176Z,1.98
2022-10-21T05:49:25.055Z,1.77
2022-10-21T05:51:31.872Z,2.00
2022-10-21T05:53:40.846Z,1.63
2022-10-21T05:55:57.246Z,1.77
2022-10-21T05:58:04.273Z,1.70
2022-10-21T06:00:12.223Z,1.67
2022-10-21T06:02:20.122Z,2.00
2022-10-21T06:04:26.996Z,1.95
2022-10-21T06:06:33.871Z,2.03
2022-10-21T06:08:42.069Z,1.83
2022-10-21T06:10:50.885Z,1.85
2022-10-21T06:12:57.727Z,1.92
2022-10-21T06:15:04.752Z,1.80
2022-10-21T06:17:11.571Z,1.80
2022-10-21T06:19:18.495Z,1.75
2022-10-21T06:21:25.320Z,2.08
2022-10-21T06:23:32.551Z,1.80
2022-10-21T06:25:39.487Z,1.70
2022-10-21T06:27:47.940Z,2.20
2022-10-21T06:29:55.839Z,2.10
2022-10-21T06:32:02.713Z,2.38
2022-10-21T06:34:09.686Z,1.90
2022-10-21T06:36:16.515Z,1.88
2022-10-21T06:38:23.748Z,1.98
2022-10-21T06:40:30.569Z,2.05
2022-10-21T06:42:39.698Z,1.70
2022-10-21T06:44:48.159Z,1.92
2022-10-21T06:46:55.289Z,2.22
2022-10-21T06:49:02.041Z,1.85
2022-10-21T06:51:10.778Z,2.15
2022-10-21T06:53:17.805Z,2.17
2022-10-21T06:55:24.836Z,2.00
2022-10-21T06:57:31.758Z,2.00
2022-10-21T06:59:38.583Z,2.00
2022-10-21T07:01:59.852Z,2.10
2022-10-21T07:06:14.309Z,1.70
2022-10-21T07:08:22.543Z,2.10
2022-10-21T07:10:43.471Z,2.00
2022-10-21T07:12:50.189Z,1.80
2022-10-21T07:14:57.425Z,1.80
2022-10-21T07:17:05.942Z,2.08
2022-10-21T07:19:14.351Z,2.00
2022-10-21T07:21:23.067Z,1.90
2022-10-21T07:23:29.889Z,1.90
2022-10-21T07:25:36.662Z,1.80
2022-10-21T07:27:46.161Z,1.73
2022-10-21T07:32:01.685Z,1.77
2022-10-21T07:34:11.685Z,1.88
2022-10-21T07:36:20.402Z,2.17
2022-10-21T07:38:27.076Z,1.83
2022-10-21T07:40:34.663Z,2.20
2022-10-21T07:42:41.485Z,1.70
2022-10-21T07:44:48.617Z,1.90
2022-10-21T07:46:56.413Z,1.70
2022-10-21T07:49:03.234Z,1.98
2022-10-21T07:51:14.360Z,2.15
2022-10-21T07:53:22.669Z,1.77
2022-10-21T07:55:29.644Z,2.17
2022-10-21T07:57:36.875Z,1.80
2022-10-21T07:59:43.806Z,1.80
2022-10-21T08:01:51.198Z,1.98
2022-10-21T08:03:59.239Z,1.88
2022-10-21T08:06:06.884Z,2.00
2022-10-21T08:08:15.406Z,2.13
2022-10-21T08:10:23.244Z,1.95
2022-10-21T08:12:30.068Z,1.95
2022-10-21T08:14:37.810Z,1.80
2022-10-21T08:16:45.147Z,1.90
2022-10-21T08:18:52.481Z,1.90
2022-10-21T08:21:01.968Z,2.30
2022-10-21T08:23:08.944Z,2.08
2022-10-21T08:25:18.178Z,2.38
2022-10-21T08:27:25.303Z,2.10
2022-10-21T08:29:34.276Z,2.15
2022-10-21T08:31:43.700Z,2.35
2022-10-21T08:33:51.715Z,2.08
2022-10-21T08:35:58.592Z,2.35
2022-10-21T08:40:19.565Z,2.00
2022-10-21T08:42:27.863Z,2.00
2022-10-21T08:44:42.008Z,2.03
2022-10-21T08:46:54.844Z,2.00
2022-10-21T08:49:08.658Z,2.38
2022-10-21T08:51:26.032Z,1.98
2022-10-21T08:53:38.537Z,1.80
2022-10-21T08:55:49.046Z,2.28
2022-10-21T08:57:56.431Z,2.00
2022-10-21T09:00:03.255Z,1.95
2022-10-21T09:02:27.280Z,2.35
2022-10-21T09:04:46.289Z,2.15
2022-10-21T09:06:58.185Z,2.00
2022-10-21T09:09:18.716Z,2.00
2022-10-21T09:11:36.251Z,2.20
2022-10-21T09:13:59.049Z,2.50
2022-10-21T09:16:13.451Z,2.10
2022-10-21T09:18:36.656Z,2.30
2022-10-21T09:21:00.541Z,2.40
2022-10-21T09:23:27.279Z,2.13
2022-10-21T09:25:37.369Z,2.65
2022-10-21T09:27:55.396Z,2.38
2022-10-21T09:30:05.723Z,1.90
2022-10-21T09:32:20.211Z,2.47
2022-10-21T09:34:40.359Z,2.10
2022-10-21T09:36:49.937Z,2.30
2022-10-21T09:39:01.453Z,1.98
2022-10-21T09:41:10.507Z,2.22
2022-10-21T09:43:27.917Z,2.47
2022-10-21T09:45:37.353Z,2.10
2022-10-21T09:47:44.688Z,2.40
2022-10-21T09:50:06.785Z,2.17
2022-10-21T09:52:16.407Z,2.33
2022-10-21T09:54:26.506Z,2.38
2022-10-21T09:56:39.335Z,2.13
2022-10-21T09:58:59.661Z,2.15
2022-10-21T10:01:08.379Z,2.15
2022-10-21T10:03:15.416Z,2.20
2022-10-21T10:05:39.439Z,2.25
2022-10-21T10:07:46.411Z,2.33
2022-10-21T10:09:53.183Z,1.88
2022-10-21T10:12:03.949Z,2.38
2022-10-21T10:14:30.738Z,2.72
2022-10-21T10:16:37.817Z,2.63
2022-10-21T10:18:45.359Z,2.35
2022-10-21T10:21:08.719Z,2.40
2022-10-21T10:23:22.044Z,1.98
2022-10-21T10:25:36.804Z,2.83
2022-10-21T10:27:51.357Z,2.85
2022-10-21T10:30:01.630Z,5.03
2022-10-21T10:32:17.599Z,6.25
2022-10-21T10:34:25.807Z,6.45
2022-10-21T10:36:37.412Z,7.10
2022-10-21T10:38:47.491Z,6.97
2022-10-21T10:40:57.836Z,8.90
2022-10-21T10:43:10.713Z,8.80
2022-10-21T10:47:32.194Z,10.40
2022-10-21T10:49:41.832Z,15.50
2022-10-21T10:51:51.370Z,18.88
2022-10-21T10:54:20.364Z,15.48
2022-10-21T10:56:32.459Z,13.52
2022-10-21T10:58:43.327Z,11.45
2022-10-21T11:00:55.239Z,11.35
2022-10-21T11:03:07.319Z,10.07
2022-10-21T11:05:26.684Z,9.43
2022-10-21T11:07:40.868Z,9.00
2022-10-21T11:09:48.624Z,8.60
2022-10-21T11:11:57.391Z,8.57
2022-10-21T11:14:04.436Z,8.98
2022-10-21T11:16:29.477Z,9.15
2022-10-21T11:18:40.800Z,9.10
2022-10-21T11:20:55.459Z,8.77
2022-10-21T11:23:17.286Z,9.40
2022-10-21T11:25:26.819Z,8.63
2022-10-21T11:27:50.590Z,9.27
2022-10-21T11:30:05.928Z,18.42
2022-10-21T11:32:27.891Z,14.40
2022-10-21T11:36:57.209Z,17.63
2022-10-21T11:39:32.034Z,13.63
2022-10-21T11:41:43.005Z,14.38
2022-10-21T11:43:57.710Z,14.15
2022-10-21T11:46:10.579Z,17.25
2022-10-21T11:48:29.740Z,18.52
2022-10-21T11:50:43.783Z,18.38
2022-10-21T11:53:15.335Z,19.10
2022-10-21T11:55:39.772Z,20.63
2022-10-21T11:57:56.833Z,21.80
2022-10-21T12:00:13.713Z,23.13
2022-10-21T12:02:24.399Z,22.70
2022-10-21T12:04:44.133Z,21.45
2022-10-21T12:06:59.557Z,20.33
2022-10-21T12:09:09.095Z,21.48
2022-10-21T12:11:20.680Z,21.52
2022-10-21T12:13:32.210Z,22.63
2022-10-21T12:15:44.109Z,21.73
2022-10-21T12:17:52.980Z,20.10
2022-10-21T12:20:03.640Z,18.95
2022-10-21T12:22:13.852Z,19.88
2022-10-21T12:24:31.315Z,18.77
2022-10-21T12:26:43.839Z,20.35
2022-10-21T12:28:58.685Z,19.00
2022-10-21T12:31:14.311Z,19.63
2022-10-21T12:33:28.816Z,20.77
2022-10-21T12:35:54.225Z,20.27
2022-10-21T12:38:25.789Z,19.67
2022-10-21T12:40:41.318Z,19.42
2022-10-21T12:42:51.321Z,18.05
2022-10-21T12:44:58.180Z,17.02
2022-10-21T12:47:07.817Z,16.05
2022-10-21T12:49:34.153Z,18.73
2022-10-21T12:51:50.505Z,19.42
2022-10-21T12:54:01.933Z,20.98
2022-10-21T12:56:10.281Z,21.55
2022-10-21T12:58:35.235Z,23.13
2022-10-21T13:00:57.172Z,22.40
2022-10-21T13:03:05.469Z,19.98
2022-10-21T13:05:12.865Z,19.17
2022-10-21T13:08:08.145Z,17.30
2022-10-21T13:10:35.397Z,17.80
2022-10-21T13:12:42.248Z,18.55
2022-10-21T13:14:51.071Z,18.92
2022-10-21T13:17:16.662Z,19.10
2022-10-21T13:19:38.914Z,20.13
2022-10-21T13:21:48.237Z,20.55
2022-10-21T13:23:59.370Z,20.85
2022-10-21T13:26:28.046Z,19.90
2022-10-21T13:28:35.131Z,19.83
2022-10-21T13:30:44.604Z,22.13
2022-10-21T13:33:04.150Z,24.15
2022-10-21T13:35:32.884Z,22.27
2022-10-21T13:37:42.429Z,23.02
2022-10-21T13:39:54.862Z,22.33
2022-10-21T13:42:05.935Z,22.55
2022-10-21T13:44:28.835Z,23.50
2022-10-21T13:46:43.270Z,24.20
2022-10-21T13:48:51.646Z,22.35
2022-10-21T13:50:58.726Z,22.67
2022-10-21T13:53:24.545Z,23.88
2022-10-21T13:55:33.517Z,24.05
2022-10-21T13:57:40.551Z,24.42
2022-10-21T13:59:47.931Z,22.50
2022-10-21T14:01:56.495Z,22.83
2022-10-21T14:04:17.604Z,22.75
2022-10-21T14:06:33.139Z,20.13
2022-10-21T14:08:45.879Z,19.85
2022-10-21T14:10:54.562Z,20.98
2022-10-21T14:13:03.175Z,20.73
2022-10-21T14:15:19.114Z,20.02
2022-10-21T14:17:28.496Z,16.85
2022-10-21T14:19:37.724Z,16.15
2022-10-21T14:21:49.104Z,17.10
2022-10-21T14:23:56.392Z,16.20
2022-10-21T14:26:10.328Z,17.65
2022-10-21T14:28:20.786Z,15.80
2022-10-21T14:30:31.091Z,12.23
2022-10-21T14:32:38.759Z,11.95
2022-10-21T14:35:01.814Z,11.10
2022-10-21T14:37:21.465Z,10.77
2022-10-21T14:39:28.235Z,11.25
2022-10-21T14:41:39.977Z,11.35
2022-10-21T14:43:48.330Z,12.50
2022-10-21T14:45:56.384Z,10.98
2022-10-21T14:48:11.450Z,10.40
2022-10-21T14:50:23.499Z,9.90
2022-10-21T14:52:36.663Z,8.05
2022-10-21T14:54:49.126Z,9.55
2022-10-21T14:56:58.966Z,7.60
2022-10-21T14:59:19.116Z,8.00
2022-10-21T15:01:26.234Z,8.23
2022-10-21T15:03:44.989Z,7.97
2022-10-21T15:05:51.812Z,8.13
2022-10-21T15:08:27.461Z,8.57
2022-10-21T15:10:34.437Z,8.80
2022-10-21T15:12:46.535Z,8.30
2022-10-21T15:14:53.356Z,7.95
2022-10-21T15:17:02.981Z,7.13
2022-10-21T15:19:19.187Z,7.05
2022-10-21T15:21:39.272Z,7.88
2022-10-21T15:23:52.968Z,6.93
2022-10-21T15:26:04.646Z,7.40
2022-10-21T15:28:19.863Z,7.13
2022-10-21T15:30:27.303Z,7.10
2022-10-21T15:32:33.972Z,6.85
2022-10-21T15:34:41.317Z,6.78
2022-10-21T15:36:48.144Z,6.60
2022-10-21T15:38:56.418Z,6.72
2022-10-21T15:41:03.215Z,6.60
2022-10-21T15:43:12.543Z,6.25
2022-10-21T15:45:23.228Z,6.47
2022-10-21T15:47:30.033Z,6.20
2022-10-21T15:49:39.052Z,6.82
2022-10-21T15:51:46.336Z,6.05
2022-10-21T15:53:53.163Z,5.93
2022-10-21T15:56:00.047Z,5.88
2022-10-21T15:58:07.062Z,6.40
2022-10-21T16:00:21.925Z,6.50
2022-10-21T16:02:29.003Z,5.70
2022-10-21T16:04:35.828Z,5.03
2022-10-21T16:06:46.951Z,5.32
2022-10-21T16:08:54.486Z,5.50
2022-10-21T16:11:01.499Z,6.20
2022-10-21T16:13:08.392Z,6.15
2022-10-21T16:15:15.996Z,6.30
2022-10-21T16:17:25.267Z,5.78
2022-10-21T16:19:32.293Z,5.85
2022-10-21T16:21:39.425Z,6.13
2022-10-21T16:23:46.246Z,5.95
2022-10-21T16:25:53.891Z,6.07
2022-10-21T16:28:00.664Z,5.75
2022-10-21T16:30:20.848Z,5.70
2022-10-21T16:32:29.477Z,6.18
2022-10-21T16:34:36.797Z,7.68
2022-10-21T16:36:43.570Z,8.65
2022-10-21T16:38:51.777Z,7.30
2022-10-21T16:40:58.548Z,7.20
2022-10-21T16:43:05.933Z,7.15
2022-10-21T16:45:13.372Z,6.72
2022-10-21T16:47:23.533Z,6.07
2022-10-21T16:49:32.143Z,6.60
2022-10-21T16:51:39.525Z,7.47
2022-10-21T16:53:46.686Z,7.57
2022-10-21T16:55:53.940Z,7.32
2022-10-21T16:58:01.538Z,6.80
2022-10-21T17:00:09.156Z,7.82
2022-10-21T17:02:20.348Z,7.45
2022-10-21T17:04:27.121Z,6.50
2022-10-21T17:06:35.887Z,7.47
2022-10-21T17:08:42.705Z,6.80
2022-10-21T17:10:49.895Z,6.50
2022-10-21T17:12:59.739Z,7.15
2022-10-21T17:15:07.029Z,6.75
2022-10-21T17:17:13.845Z,6.70
2022-10-21T17:19:21.234Z,6.55
2022-10-21T17:21:29.795Z,7.72
2022-10-21T17:25:50.252Z,7.53
2022-10-21T17:27:57.704Z,7.60
2022-10-21T17:30:04.464Z,7.78
2022-10-21T17:32:13.392Z,7.00
2022-10-21T17:34:28.861Z,7.00
2022-10-21T17:36:35.784Z,7.28
2022-10-21T17:38:44.657Z,7.10
2022-10-21T17:40:51.562Z,6.40
2022-10-21T17:42:59.377Z,6.70
2022-10-21T17:45:06.269Z,6.68
2022-10-21T17:47:14.879Z,6.95
2022-10-21T17:49:22.150Z,6.68
2022-10-21T17:51:29.435Z,6.90
2022-10-21T17:53:36.258Z,6.95
2022-10-21T17:55:45.284Z,6.65
2022-10-21T17:57:52.064Z,6.78
2022-10-21T17:59:59.111Z,6.40
2022-10-21T18:02:05.909Z,7.18
2022-10-21T18:04:14.163Z,7.43
2022-10-21T18:06:21.088Z,7.00
2022-10-21T18:08:28.015Z,6.15
2022-10-21T18:10:34.736Z,6.45
2022-10-21T18:12:43.452Z,6.00
2022-10-21T18:14:50.389Z,6.10
2022-10-21T18:16:57.253Z,5.70
2022-10-21T18:19:04.090Z,6.05
2022-10-21T18:21:13.766Z,6.47
2022-10-21T18:23:20.549Z,6.10
2022-10-21T18:25:27.413Z,6.13
2022-10-21T18:27:34.218Z,6.13
2022-10-21T18:29:43.211Z,5.85
2022-10-21T18:31:49.981Z,6.07
2022-10-21T18:33:58.701Z,6.05
2022-10-21T18:36:11.668Z,6.15
2022-10-21T18:38:18.696Z,6.28
2022-10-21T18:40:25.415Z,6.70
2022-10-21T18:42:32.452Z,6.55
2022-10-21T18:44:39.278Z,7.00
2022-10-21T18:46:50.176Z,6.65
2022-10-21T18:48:59.433Z,6.22
2022-10-21T18:51:09.723Z,6.15
2022-10-21T18:53:16.645Z,6.22
2022-10-21T18:55:23.572Z,6.40
2022-10-21T18:57:30.755Z,5.95
2022-10-21T18:59:37.577Z,5.85
2022-10-21T19:01:44.433Z,5.70
2022-10-21T19:03:55.013Z,5.57
2022-10-21T19:06:16.847Z,5.70
2022-10-21T19:08:23.711Z,5.43
2022-10-21T19:10:30.590Z,5.55
2022-10-21T19:12:37.717Z,5.70
2022-10-21T19:14:44.662Z,6.15
2022-10-21T19:16:53.265Z,5.82
2022-10-21T19:19:01.820Z,5.90
2022-10-21T19:21:09.175Z,5.57
2022-10-21T19:23:15.929Z,5.40
2022-10-21T19:25:23.019Z,5.50
2022-10-21T19:27:29.830Z,5.57
2022-10-21T19:29:36.927Z,5.63
2022-10-21T19:31:44.103Z,5.90
2022-10-21T19:33:51.481Z,5.95
2022-10-21T19:36:02.971Z,5.30
2022-10-21T19:38:11.629Z,5.40
2022-10-21T19:40:22.497Z,5.28
2022-10-21T19:42:29.727Z,5.60
2022-10-21T19:44:36.397Z,6.20
2022-10-21T19:46:43.682Z,5.50
2022-10-21T19:48:50.967Z,5.97
2022-10-21T19:51:00.771Z,6.07
2022-10-21T19:53:07.535Z,6.07
2022-10-21T19:55:14.509Z,6.15
2022-10-21T19:57:21.392Z,5.97
2022-10-21T19:59:28.195Z,6.28
2022-10-21T20:01:36.476Z,6.53
2022-10-21T20:03:45.128Z,6.78
2022-10-21T20:05:52.208Z,6.57
2022-10-21T20:08:00.672Z,6.82
2022-10-21T20:10:08.730Z,7.25
2022-10-21T20:12:15.649Z,7.18
2022-10-21T20:14:22.674Z,7.45
2022-10-21T20:16:31.186Z,7.45
2022-10-21T20:18:38.321Z,7.32
2022-10-21T20:20:45.550Z,6.95
2022-10-21T20:22:52.439Z,7.30
2022-10-21T20:25:00.990Z,7.68
2022-10-21T20:27:07.917Z,8.10
2022-10-21T20:29:16.473Z,7.82
2022-10-21T20:31:23.765Z,8.25
2022-10-21T20:33:30.843Z,8.50
2022-10-21T20:35:43.659Z,8.07
2022-10-21T20:37:50.532Z,9.15
2022-10-21T20:39:57.355Z,8.48
2022-10-21T20:42:05.919Z,8.50
2022-10-21T20:44:17.147Z,8.70
2022-10-21T20:46:26.075Z,8.90
2022-10-21T20:48:33.507Z,8.63
2022-10-21T20:50:40.277Z,8.48
2022-10-21T20:52:47.561Z,8.32
2022-10-21T20:54:57.200Z,8.73
2022-10-21T20:57:06.684Z,8.20
2022-10-21T20:59:16.177Z,8.82
2022-10-21T21:01:26.282Z,8.48
2022-10-21T21:03:33.156Z,9.02
2022-10-21T21:05:40.073Z,8.80
2022-10-21T21:07:46.945Z,8.68
2022-10-21T21:10:09.197Z,8.63
2022-10-21T21:12:17.900Z,8.65
2022-10-21T21:14:24.988Z,8.60
2022-10-21T21:16:31.956Z,8.48
2022-10-21T21:18:39.545Z,8.45
2022-10-21T21:20:46.524Z,8.05
2022-10-21T21:22:53.753Z,8.55
2022-10-21T21:25:00.886Z,8.65
2022-10-21T21:27:07.760Z,8.80
2022-10-21T21:29:17.551Z,7.97
2022-10-21T21:31:26.220Z,8.57
2022-10-21T21:33:33.301Z,7.95
2022-10-21T21:35:40.072Z,8.35
2022-10-21T21:37:47.150Z,8.45
2022-10-21T21:39:54.024Z,7.93
2022-10-21T21:42:01.271Z,8.70
2022-10-21T21:44:08.754Z,8.68
2022-10-21T21:46:23.606Z,8.45
2022-10-21T21:48:30.670Z,8.35
2022-10-21T21:50:37.613Z,9.13
2022-10-21T21:52:44.888Z,8.95
2022-10-21T21:54:55.457Z,9.27
2022-10-21T21:57:28.659Z,9.27
2022-10-21T21:59:29.325Z,9.07
2022-10-21T22:01:37.929Z,9.27
2022-10-21T22:03:45.020Z,10.20
2022-10-21T22:05:51.845Z,10.38
2022-10-21T22:07:58.669Z,10.80
2022-10-21T22:10:05.798Z,11.23
2022-10-21T22:12:14.478Z,10.93
2022-10-21T22:14:21.850Z,10.82
2022-10-21T22:16:31.058Z,10.15
2022-10-21T22:18:39.592Z,10.50
2022-10-21T22:20:46.363Z,9.43
2022-10-21T22:22:53.681Z,9.95
2022-10-21T22:25:00.523Z,9.32
2022-10-21T22:27:07.859Z,9.60
2022-10-21T22:29:14.682Z,9.52
2022-10-21T22:31:27.423Z,8.75
2022-10-21T22:33:40.175Z,9.07
2022-10-21T22:35:47.028Z,8.95
2022-10-21T22:37:53.852Z,8.98
2022-10-21T22:40:01.196Z,9.90
2022-10-21T22:42:08.174Z,9.50
2022-10-21T22:44:15.602Z,8.77
2022-10-21T22:46:33.242Z,9.05
2022-10-21T22:48:42.692Z,8.88
2022-10-21T22:50:49.850Z,9.27
2022-10-21T22:52:56.704Z,9.73
2022-10-21T22:55:03.801Z,9.10
2022-10-21T22:57:10.570Z,9.85
2022-10-21T22:59:17.700Z,9.68
2022-10-21T23:01:25.036Z,9.88
2022-10-21T23:03:32.228Z,9.77
2022-10-21T23:05:40.739Z,10.50
2022-10-21T23:07:47.912Z,9.85
2022-10-21T23:09:56.856Z,10.18
2022-10-21T23:12:04.067Z,10.02
2022-10-21T23:14:11.608Z,9.30
2022-10-21T23:16:18.758Z,10.02
2022-10-21T23:18:25.510Z,9.32
2022-10-21T23:20:32.692Z,10.35
2022-10-21T23:22:41.369Z,10.05
2022-10-21T23:24:48.693Z,10.45
2022-10-21T23:26:59.045Z,9.73
2022-10-21T23:29:08.548Z,9.70
2022-10-21T23:31:15.256Z,9.93
2022-10-21T23:33:22.283Z,9.52
2022-10-21T23:35:29.064Z,9.63
2022-10-21T23:37:36.083Z,9.85
2022-10-21T23:39:44.648Z,10.10
2022-10-21T23:41:51.943Z,9.93
2022-10-21T23:43:58.805Z,9.45
2022-10-21T23:46:07.831Z,9.00
2022-10-21T23:48:14.770Z,9.00
2022-10-21T23:50:22.040Z,9.48
2022-10-21T23:52:29.018Z,8.68
2022-10-21T23:54:35.890Z,9.27
2022-10-21T23:56:44.358Z,9.60
2022-10-21T23:58:51.279Z,9.65
